createdAt,value
2022-08-11T00:01:18.165Z,43.94
2022-08-11T00:03:54.043Z,44.04
2022-08-11T00:06:28.980Z,44.38
2022-08-11T00:08:58.787Z,44.45
2022-08-11T00:11:36.182Z,44.44
2022-08-11T00:14:14.566Z,44.54
2022-08-11T00:16:54.145Z,44.72
2022-08-11T00:20:12.863Z,44.86
2022-08-11T00:22:22.424Z,44.96
2022-08-11T00:24:53.978Z,45.05
2022-08-11T00:27:33.373Z,45.28
2022-08-11T00:30:02.099Z,45.65
2022-08-11T00:32:33.239Z,45.59
2022-08-11T00:35:53.887Z,45.66
2022-08-11T00:37:56.044Z,45.69
2022-08-11T00:40:37.406Z,45.95
2022-08-11T00:43:24.714Z,45.99
2022-08-11T00:46:15.139Z,46.10
2022-08-11T00:49:16.864Z,46.16
2022-08-11T00:52:08.533Z,46.29
2022-08-11T00:55:23.757Z,46.60
2022-08-11T00:58:45.065Z,46.57
2022-08-11T01:01:34.420Z,46.66
2022-08-11T01:04:55.867Z,46.80
2022-08-11T01:08:25.378Z,46.82
2022-08-11T01:11:23.265Z,46.72
2022-08-11T01:14:50.065Z,46.88
2022-08-11T01:18:21.846Z,46.82
2022-08-11T01:21:55.195Z,46.81
2022-08-11T01:25:21.794Z,46.86
2022-08-11T01:28:38.810Z,46.94
2022-08-11T01:32:02.049Z,46.57
2022-08-11T01:35:21.940Z,46.41
2022-08-11T01:38:34.919Z,46.59
2022-08-11T01:41:51.891Z,46.55
2022-08-11T01:45:07.388Z,46.38
2022-08-11T01:47:54.323Z,46.35
2022-08-11T01:51:03.349Z,46.62
2022-08-11T01:53:59.449Z,46.36
2022-08-11T01:56:38.303Z,46.52
2022-08-11T01:59:17.530Z,46.40
2022-08-11T02:02:41.975Z,46.59
2022-08-11T02:05:26.768Z,46.34
2022-08-11T02:08:21.449Z,46.55
2022-08-11T02:11:31.107Z,46.37
2022-08-11T02:14:22.296Z,46.58
2022-08-11T02:17:09.771Z,46.52
2022-08-11T02:20:12.895Z,46.51
2022-08-11T02:23:14.047Z,46.57
2022-08-11T02:26:14.570Z,46.45
2022-08-11T02:28:59.936Z,46.58
2022-08-11T02:32:24.539Z,46.67
2022-08-11T02:35:05.088Z,46.82
2022-08-11T02:37:51.805Z,46.82
2022-08-11T02:40:34.718Z,46.94
2022-08-11T02:43:13.308Z,47.16
2022-08-11T02:45:59.965Z,46.96
2022-08-11T02:49:11.398Z,47.60
2022-08-11T02:52:00.556Z,47.20
2022-08-11T02:54:44.870Z,47.68
2022-08-11T02:57:21.227Z,47.40
2022-08-11T02:59:58.274Z,47.66
2022-08-11T03:03:00.122Z,47.59
2022-08-11T03:05:45.380Z,47.87
2022-08-11T03:08:33.827Z,48.17
2022-08-11T03:11:31.267Z,48.00
2022-08-11T03:14:35.471Z,47.95
2022-08-11T03:17:23.997Z,48.27
2022-08-11T03:20:08.838Z,48.44
2022-08-11T03:22:52.183Z,48.61
2022-08-11T03:25:32.409Z,49.39
2022-08-11T03:28:14.407Z,49.86
2022-08-11T03:30:53.526Z,49.59
2022-08-11T03:33:47.809Z,50.19
2022-08-11T03:37:16.527Z,50.28
2022-08-11T03:40:04.361Z,50.36
2022-08-11T03:42:56.075Z,50.71
2022-08-11T03:45:41.667Z,51.32
2022-08-11T03:48:19.909Z,50.58
2022-08-11T03:51:06.285Z,51.68
2022-08-11T03:54:04.919Z,52.07
2022-08-11T03:57:25.509Z,52.05
2022-08-11T04:00:39.124Z,51.16
2022-08-11T04:03:51.690Z,51.21
2022-08-11T04:07:10.949Z,51.27
2022-08-11T04:10:28.709Z,50.52
2022-08-11T04:13:58.136Z,50.50
2022-08-11T04:16:53.182Z,50.65
2022-08-11T04:20:11.897Z,50.70
2022-08-11T04:24:13.099Z,50.54
2022-08-11T04:26:47.516Z,49.93
2022-08-11T04:30:03.450Z,51.73
2022-08-11T04:33:25.766Z,52.96
2022-08-11T04:36:10.127Z,51.89
2022-08-11T04:39:08.617Z,52.38
2022-08-11T04:42:44.260Z,53.11
2022-08-11T04:45:46.246Z,52.88
2022-08-11T04:49:09.841Z,54.01
2022-08-11T04:52:37.585Z,54.13
2022-08-11T04:56:13.967Z,54.67
2022-08-11T04:59:27.329Z,53.77
2022-08-11T05:02:38.179Z,53.26
2022-08-11T05:05:31.107Z,53.06
2022-08-11T05:09:00.764Z,52.84
2022-08-11T05:11:57.987Z,51.02
2022-08-11T05:14:56.317Z,50.02
2022-08-11T05:17:55.465Z,49.25
2022-08-11T05:20:45.589Z,48.91
2022-08-11T05:23:35.384Z,47.41
2022-08-11T05:26:47.915Z,46.34
2022-08-11T05:29:59.220Z,45.19
2022-08-11T05:33:00.886Z,43.22
2022-08-11T05:36:00.380Z,43.49
2022-08-11T05:38:53.489Z,41.99
2022-08-11T05:41:44.772Z,41.28
2022-08-11T05:44:39.217Z,41.28
2022-08-11T05:47:28.445Z,40.24
2022-08-11T05:50:16.889Z,40.43
2022-08-11T05:53:19.866Z,40.19
2022-08-11T05:56:09.365Z,39.01
2022-08-11T05:58:42.939Z,38.42
2022-08-11T06:01:14.165Z,38.42
2022-08-11T06:04:08.600Z,38.02
2022-08-11T06:06:45.153Z,37.99
2022-08-11T06:09:14.734Z,38.46
2022-08-11T06:11:45.123Z,37.88
2022-08-11T06:14:15.523Z,37.77
2022-08-11T06:16:49.600Z,37.07
2022-08-11T06:19:30.912Z,37.04
2022-08-11T06:22:01.521Z,37.10
2022-08-11T06:24:32.280Z,37.11
2022-08-11T06:27:18.619Z,36.29
2022-08-11T06:29:54.894Z,36.31
2022-08-11T06:32:28.684Z,36.46
2022-08-11T06:35:14.016Z,35.63
2022-08-11T06:37:59.041Z,35.70
2022-08-11T06:40:37.086Z,35.48
2022-08-11T06:43:18.541Z,34.25
2022-08-11T06:45:57.763Z,33.72
2022-08-11T06:48:26.369Z,34.39
2022-08-11T06:51:12.315Z,34.26
2022-08-11T06:53:56.332Z,33.41
2022-08-11T06:57:12.521Z,33.53
2022-08-11T07:00:03.584Z,33.63
2022-08-11T07:02:37.080Z,33.00
2022-08-11T07:05:20.247Z,32.57
2022-08-11T07:09:11.843Z,32.85
2022-08-11T07:12:19.816Z,32.48
2022-08-11T07:15:11.532Z,31.92
2022-08-11T07:17:49.286Z,31.13
2022-08-11T07:20:37.184Z,30.69
2022-08-11T07:23:28.903Z,29.86
2022-08-11T07:26:21.014Z,29.82
2022-08-11T07:28:57.970Z,30.13
2022-08-11T07:31:34.090Z,28.44
2022-08-11T07:34:21.554Z,29.08
2022-08-11T07:36:55.573Z,28.53
2022-08-11T07:39:27.878Z,27.99
2022-08-11T07:42:00.351Z,28.06
2022-08-11T07:44:34.789Z,27.78
2022-08-11T07:47:22.999Z,27.15
2022-08-11T07:50:12.682Z,26.11
2022-08-11T07:52:42.580Z,26.69
2022-08-11T07:55:17.116Z,25.20
2022-08-11T07:58:16.476Z,25.54
2022-08-11T08:01:21.613Z,25.84
2022-08-11T08:04:11.591Z,25.36
2022-08-11T08:06:59.572Z,25.81
2022-08-11T08:09:47.432Z,25.47
2022-08-11T08:12:35.486Z,25.28
2022-08-11T08:15:28.783Z,25.03
2022-08-11T08:18:20.556Z,25.24
2022-08-11T08:20:51.615Z,24.49
2022-08-11T08:23:33.050Z,25.50
2022-08-11T08:26:05.921Z,24.50
2022-08-11T08:28:46.516Z,23.86
2022-08-11T08:31:16.368Z,24.51
2022-08-11T08:33:45.313Z,24.07
2022-08-11T08:36:16.921Z,23.49
2022-08-11T08:38:49.894Z,23.37
2022-08-11T08:41:23.135Z,23.31
2022-08-11T08:43:56.424Z,22.98
2022-08-11T08:46:34.825Z,22.80
2022-08-11T08:49:05.613Z,22.52
2022-08-11T08:51:58.730Z,21.87
2022-08-11T08:54:37.027Z,22.65
2022-08-11T08:57:09.067Z,22.58
2022-08-11T08:59:47.645Z,21.80
2022-08-11T09:02:34.680Z,21.43
2022-08-11T09:05:18.091Z,22.66
2022-08-11T09:07:54.038Z,21.01
2022-08-11T09:10:25.166Z,20.69
2022-08-11T09:12:53.504Z,21.89
2022-08-11T09:15:24.201Z,21.81
2022-08-11T09:18:10.032Z,21.91
2022-08-11T09:20:39.524Z,20.91
2022-08-11T09:24:07.427Z,20.59
2022-08-11T09:26:37.584Z,20.95
2022-08-11T09:29:08.456Z,19.55
2022-08-11T09:31:40.261Z,18.74
2022-08-11T09:34:11.549Z,19.66
2022-08-11T09:37:06.173Z,20.67
2022-08-11T09:39:56.197Z,19.38
2022-08-11T09:42:48.559Z,20.08
2022-08-11T09:45:18.501Z,19.42
2022-08-11T09:47:48.219Z,20.27
2022-08-11T09:50:18.465Z,19.67
2022-08-11T09:53:16.955Z,18.32
2022-08-11T09:55:39.929Z,17.61
2022-08-11T09:58:42.288Z,17.49
2022-08-11T10:01:03.853Z,17.44
2022-08-11T10:03:40.324Z,17.72
2022-08-11T10:06:34.276Z,17.25
2022-08-11T10:09:06.943Z,16.98
2022-08-11T10:11:38.752Z,16.67
2022-08-11T10:14:34.017Z,17.45
2022-08-11T10:17:09.088Z,17.26
2022-08-11T10:19:40.433Z,16.83
2022-08-11T10:22:32.987Z,16.52
2022-08-11T10:25:21.535Z,17.37
2022-08-11T10:28:30.521Z,17.08
2022-08-11T10:31:06.935Z,17.02
2022-08-11T10:34:03.502Z,16.45
2022-08-11T10:36:34.680Z,15.82
2022-08-11T10:39:06.624Z,16.01
2022-08-11T10:42:06.079Z,16.40
2022-08-11T10:44:42.119Z,16.60
2022-08-11T10:47:34.330Z,16.52
2022-08-11T10:50:26.145Z,17.37
2022-08-11T10:53:16.190Z,15.45
2022-08-11T10:56:17.598Z,15.58
2022-08-11T10:58:52.564Z,15.23
2022-08-11T11:01:25.299Z,15.22
2022-08-11T11:03:58.944Z,15.15
2022-08-11T11:06:44.822Z,15.81
2022-08-11T11:09:18.530Z,15.87
2022-08-11T11:12:13.053Z,14.76
2022-08-11T11:15:01.569Z,16.05
2022-08-11T11:17:56.743Z,15.93
2022-08-11T11:20:36.749Z,16.36
2022-08-11T11:23:18.483Z,16.71
2022-08-11T11:26:32.011Z,16.08
2022-08-11T11:29:46.207Z,15.61
2022-08-11T11:32:28.247Z,15.48
2022-08-11T11:35:31.250Z,15.82
2022-08-11T11:38:04.831Z,15.10
2022-08-11T11:40:34.819Z,15.44
2022-08-11T11:43:05.244Z,14.94
2022-08-11T11:45:35.241Z,15.06
2022-08-11T11:48:04.186Z,14.94
2022-08-11T11:50:38.660Z,15.33
2022-08-11T11:53:10.606Z,16.24
2022-08-11T11:55:43.533Z,15.97
2022-08-11T11:58:32.136Z,14.93
2022-08-11T12:01:19.779Z,14.16
2022-08-11T12:03:52.727Z,13.61
2022-08-11T12:06:28.241Z,14.08
2022-08-11T12:08:58.690Z,13.19
2022-08-11T12:11:50.333Z,14.09
2022-08-11T12:14:21.094Z,14.20
2022-08-11T12:16:51.326Z,15.04
2022-08-11T12:19:35.917Z,14.86
2022-08-11T12:22:23.220Z,14.06
2022-08-11T12:25:11.581Z,13.96
2022-08-11T12:27:41.803Z,14.21
2022-08-11T12:30:12.938Z,13.40
2022-08-11T12:32:44.295Z,13.43
2022-08-11T12:35:15.989Z,14.09
2022-08-11T12:37:49.247Z,14.32
2022-08-11T12:41:12.038Z,14.32
2022-08-11T12:43:57.007Z,14.78
2022-08-11T12:46:34.455Z,14.25
2022-08-11T12:49:31.310Z,14.22
2022-08-11T12:52:14.760Z,13.45
2022-08-11T12:54:56.301Z,13.33
2022-08-11T12:57:49.135Z,13.77
2022-08-11T13:00:39.549Z,13.24
2022-08-11T13:03:29.612Z,12.29
2022-08-11T13:06:03.839Z,13.12
2022-08-11T13:08:38.417Z,13.05
2022-08-11T13:11:56.980Z,13.87
2022-08-11T13:14:17.030Z,13.04
2022-08-11T13:17:05.518Z,13.07
2022-08-11T13:19:34.851Z,13.02
2022-08-11T13:22:07.300Z,13.17
2022-08-11T13:24:36.578Z,13.59
2022-08-11T13:27:05.628Z,13.79
2022-08-11T13:29:36.711Z,13.65
2022-08-11T13:32:06.553Z,13.49
2022-08-11T13:34:41.560Z,13.79
2022-08-11T13:37:14.600Z,14.51
2022-08-11T13:39:48.683Z,15.06
2022-08-11T13:42:20.898Z,14.23
2022-08-11T13:44:49.628Z,13.69
2022-08-11T13:47:18.882Z,13.24
2022-08-11T13:49:47.888Z,12.79
2022-08-11T13:52:19.424Z,12.66
2022-08-11T13:54:51.135Z,13.06
2022-08-11T13:58:08.205Z,12.79
2022-08-11T14:00:13.210Z,13.22
2022-08-11T14:02:57.209Z,13.38
2022-08-11T14:05:29.741Z,13.80
2022-08-11T14:08:38.205Z,13.15
2022-08-11T14:12:21.751Z,13.43
2022-08-11T14:14:21.276Z,13.46
2022-08-11T14:16:57.937Z,13.73
2022-08-11T14:19:29.936Z,13.41
2022-08-11T14:22:09.129Z,13.86
2022-08-11T14:24:43.460Z,13.47
2022-08-11T14:28:30.552Z,14.46
2022-08-11T14:30:05.372Z,13.83
2022-08-11T14:32:33.842Z,14.93
2022-08-11T14:35:05.371Z,14.31
2022-08-11T14:37:33.636Z,14.43
2022-08-11T14:40:24.312Z,13.55
2022-08-11T14:43:21.860Z,13.51
2022-08-11T14:46:29.003Z,13.62
2022-08-11T14:49:01.786Z,13.38
2022-08-11T14:51:30.739Z,12.99
2022-08-11T14:54:20.222Z,13.80
2022-08-11T14:56:54.721Z,13.20
2022-08-11T14:59:26.688Z,13.51
2022-08-11T15:02:13.658Z,13.81
2022-08-11T15:04:46.460Z,13.92
2022-08-11T15:07:17.378Z,14.27
2022-08-11T15:10:10.146Z,13.93
2022-08-11T15:12:41.853Z,14.16
2022-08-11T15:15:31.585Z,14.56
2022-08-11T15:18:06.890Z,15.03
2022-08-11T15:20:53.963Z,13.99
2022-08-11T15:23:40.886Z,14.07
2022-08-11T15:26:15.507Z,14.95
2022-08-11T15:29:10.322Z,14.79
2022-08-11T15:31:44.246Z,15.07
2022-08-11T15:34:40.831Z,15.03
2022-08-11T15:37:26.830Z,14.00
2022-08-11T15:40:32.899Z,14.44
2022-08-11T15:43:29.320Z,14.75
2022-08-11T15:46:08.247Z,14.65
2022-08-11T15:48:48.138Z,14.63
2022-08-11T15:51:27.346Z,15.24
2022-08-11T15:54:07.117Z,15.40
2022-08-11T15:56:44.065Z,15.92
2022-08-11T15:59:41.897Z,16.21
2022-08-11T16:02:35.877Z,15.73
2022-08-11T16:05:13.303Z,15.27
2022-08-11T16:07:49.049Z,15.44
2022-08-11T16:10:23.237Z,15.37
2022-08-11T16:13:05.717Z,15.16
2022-08-11T16:15:57.066Z,15.64
2022-08-11T16:18:40.603Z,15.79
2022-08-11T16:21:33.993Z,16.47
2022-08-11T16:24:05.954Z,15.64
2022-08-11T16:27:08.488Z,16.14
2022-08-11T16:29:32.184Z,15.91
2022-08-11T16:32:18.471Z,16.40
2022-08-11T16:35:15.843Z,17.43
2022-08-11T16:38:04.752Z,17.32
2022-08-11T16:40:34.933Z,16.63
2022-08-11T16:43:28.573Z,16.75
2022-08-11T16:46:16.830Z,16.96
2022-08-11T16:48:49.388Z,16.65
2022-08-11T16:51:20.908Z,17.23
2022-08-11T16:54:05.536Z,16.49
2022-08-11T16:56:41.827Z,17.12
2022-08-11T16:59:17.883Z,17.64
2022-08-11T17:01:55.542Z,16.96
2022-08-11T17:04:54.268Z,17.59
2022-08-11T17:07:44.842Z,17.59
2022-08-11T17:10:53.242Z,17.95
2022-08-11T17:13:32.813Z,17.93
2022-08-11T17:16:12.411Z,18.14
2022-08-11T17:18:57.075Z,17.99
2022-08-11T17:21:29.843Z,18.27
2022-08-11T17:24:08.431Z,17.90
2022-08-11T17:26:55.822Z,18.18
2022-08-11T17:29:32.645Z,18.98
2022-08-11T17:32:25.549Z,18.28
2022-08-11T17:35:19.762Z,19.03
2022-08-11T17:37:50.325Z,19.58
2022-08-11T17:40:24.518Z,19.71
2022-08-11T17:43:15.018Z,20.08
2022-08-11T17:46:05.165Z,20.30
2022-08-11T17:48:47.881Z,20.39
2022-08-11T17:51:39.969Z,20.86
2022-08-11T17:54:29.535Z,21.28
2022-08-11T17:57:20.325Z,21.89
2022-08-11T17:59:54.639Z,21.45
2022-08-11T18:02:49.196Z,21.79
2022-08-11T18:05:21.582Z,21.92
2022-08-11T18:08:12.620Z,22.29
2022-08-11T18:11:02.510Z,22.43
2022-08-11T18:13:59.602Z,22.26
2022-08-11T18:16:48.009Z,22.59
2022-08-11T18:19:35.110Z,22.53
2022-08-11T18:22:26.678Z,23.11
2022-08-11T18:25:20.025Z,23.14
2022-08-11T18:28:12.620Z,23.17
2022-08-11T18:31:07.529Z,23.04
2022-08-11T18:34:08.984Z,23.61
2022-08-11T18:37:05.006Z,23.40
2022-08-11T18:40:02.459Z,23.27
2022-08-11T18:42:52.338Z,23.35
2022-08-11T18:45:45.710Z,23.69
2022-08-11T18:48:41.674Z,23.70
2022-08-11T18:51:36.902Z,23.71
2022-08-11T18:54:29.293Z,23.71
2022-08-11T18:57:21.989Z,24.10
2022-08-11T19:00:12.343Z,24.25
2022-08-11T19:03:01.760Z,24.95
2022-08-11T19:06:37.161Z,24.48
2022-08-11T19:09:12.791Z,24.62
2022-08-11T19:12:00.623Z,25.76
2022-08-11T19:14:53.618Z,26.11
2022-08-11T19:17:45.941Z,25.79
2022-08-11T19:20:39.038Z,26.20
2022-08-11T19:23:31.656Z,26.50
2022-08-11T19:26:21.899Z,26.91
2022-08-11T19:30:05.280Z,26.84
2022-08-11T19:32:18.617Z,26.86
2022-08-11T19:35:07.678Z,27.44
2022-08-11T19:37:56.765Z,28.05
2022-08-11T19:40:46.666Z,26.82
2022-08-11T19:43:36.721Z,28.22
2022-08-11T19:46:27.063Z,28.35
2022-08-11T19:49:20.881Z,28.00
2022-08-11T19:52:09.431Z,27.91
2022-08-11T19:54:59.577Z,28.03
2022-08-11T19:57:49.707Z,28.53
2022-08-11T20:00:39.177Z,28.80
2022-08-11T20:03:30.673Z,28.97
2022-08-11T20:06:22.164Z,29.13
2022-08-11T20:09:12.540Z,29.13
2022-08-11T20:12:06.048Z,28.74
2022-08-11T20:14:59.065Z,28.70
2022-08-11T20:17:52.000Z,29.27
2022-08-11T20:20:43.399Z,28.83
2022-08-11T20:23:34.820Z,28.86
2022-08-11T20:26:31.540Z,28.57
2022-08-11T20:29:19.889Z,29.15
2022-08-11T20:32:09.624Z,29.52
2022-08-11T20:34:58.865Z,28.72
2022-08-11T20:37:51.306Z,29.40
2022-08-11T20:40:43.924Z,29.12
2022-08-11T20:44:08.562Z,29.54
2022-08-11T20:46:44.265Z,29.31
2022-08-11T20:49:41.272Z,29.14
2022-08-11T20:52:41.793Z,29.57
2022-08-11T20:55:52.212Z,29.96
2022-08-11T20:59:13.229Z,29.00
2022-08-11T21:01:52.053Z,29.56
2022-08-11T21:04:54.316Z,29.49
2022-08-11T21:07:55.159Z,29.46
2022-08-11T21:10:46.723Z,29.35
2022-08-11T21:13:36.947Z,29.24
2022-08-11T21:16:27.735Z,29.83
2022-08-11T21:20:01.737Z,29.40
2022-08-11T21:22:38.913Z,29.84
2022-08-11T21:25:32.242Z,29.94
2022-08-11T21:28:24.723Z,30.50
2022-08-11T21:31:14.632Z,30.78
2022-08-11T21:34:03.743Z,30.96
2022-08-11T21:36:52.697Z,31.22
2022-08-11T21:39:44.804Z,30.91
2022-08-11T21:42:33.375Z,32.06
2022-08-11T21:45:21.609Z,31.95
2022-08-11T21:48:09.572Z,31.88
2022-08-11T21:50:56.306Z,32.60
2022-08-11T21:53:44.755Z,32.21
2022-08-11T21:56:34.327Z,32.09
2022-08-11T21:59:21.058Z,32.62
2022-08-11T22:02:12.545Z,33.21
2022-08-11T22:05:00.949Z,33.41
2022-08-11T22:07:48.725Z,33.60
2022-08-11T22:10:42.160Z,33.47
2022-08-11T22:13:32.026Z,34.27
2022-08-11T22:16:18.790Z,34.58
2022-08-11T22:19:09.584Z,34.62
2022-08-11T22:22:02.661Z,34.73
2022-08-11T22:24:52.995Z,35.09
2022-08-11T22:27:40.804Z,34.97
2022-08-11T22:30:30.667Z,35.41
2022-08-11T22:33:25.727Z,35.27
2022-08-11T22:36:17.040Z,35.61
2022-08-11T22:39:07.413Z,36.31
2022-08-11T22:41:54.944Z,36.41
2022-08-11T22:44:41.592Z,36.47
2022-08-11T22:47:38.305Z,36.32
2022-08-11T22:50:30.703Z,36.37
2022-08-11T22:53:19.791Z,36.94
2022-08-11T22:56:08.346Z,37.06
2022-08-11T22:58:55.090Z,36.97
2022-08-11T23:01:56.301Z,37.13
2022-08-11T23:04:53.129Z,37.53
2022-08-11T23:07:51.534Z,37.71
2022-08-11T23:10:39.270Z,38.13
2022-08-11T23:13:27.803Z,37.66
2022-08-11T23:16:16.429Z,37.96
2022-08-11T23:19:04.448Z,38.07
2022-08-11T23:21:53.255Z,38.32
2022-08-11T23:24:41.078Z,38.42
2022-08-11T23:27:29.133Z,38.38
2022-08-11T23:30:19.199Z,38.93
2022-08-11T23:33:10.116Z,38.54
2022-08-11T23:36:03.600Z,38.75
2022-08-11T23:38:54.185Z,38.59
2022-08-11T23:41:41.867Z,39.48
2022-08-11T23:44:28.328Z,39.60
2022-08-11T23:47:18.514Z,39.26
2022-08-11T23:50:06.519Z,39.63
2022-08-11T23:52:54.574Z,39.99
2022-08-11T23:55:42.307Z,39.60
2022-08-11T23:58:30.707Z,40.09
